Главная страница
METAR-TAF:

METAR-TAF

Аэропорты :

Нальчик, Россия

широта: 43-30-46N, долгота: 043-38-12E, высота над уровнем моря: 445 м

Текущие метеонаблюдения

Эта сводка был подготовлена 1 час и 4 минут назад, в 15:00 UTC
Ветер 4 Узел от западно-северо-западный
Температура 2°C
Влажность 100%
Давление 1019 hPa
Видимость 10 км и более
Сплошная облачность на высоте 800 фута

METAR: URMN 151500Z 29002MPS 9999 OVC008 02/02 Q1019 R24/110060 NOSIG RMK MT OBSC QFE728

Время: 19:04 (16:04 UTC)

Прогноз

Эта сводка был подготовлена 2 часа и 4 минут назад, в 14:00 UTC
Прогноз действительный с 15-го 15 UTC до 15-го 24 UTC
Ветер 6 Узел от северо-северо-восточный
Видимость: 2100 м
Сплошная облачность на высоте 500 фута
дымка
временами
С 15-го 15 UTC до 15-го 21 UTC
Видимость: 0500 м
Сплошная облачность на высоте 200 фута
(Слабый) переохлажденный, Морось, переохлажденный туман

TAF: URMN 151400Z 1515/1524 02003MPS 2100 BR OVC005 TEMPO 1515/1521 0500 -FZDZ FZFG OVC002

Метеонаблюдения и прогнозы для более 4000 аэропортов (сводки METAR и TAF).

Имеющиеся станции представлены на карте желтыми и красными точками.

Чтобы увидеть название станции, наведите на нее мышь.

Затем щелкните, чтобы увидеть метеонаблюдения и метеопрогнозы.

Управление картой: чтобы увеличить масштаб, щелкните зеленые кнопки с черным крестиком; чтобы уменьшить масштаб, щелкните зеленую кнопку с тире; для просмотра соседних карт щелкайте зеленые стрелки.


METAR-TAF: